Sidell, IL (61876)

3:02 PM CST on March 04, 2015 (GMT -0600)
APRSWXNET Newman IL US | Change Station
CLOSE
Current Station
Personal Weather Station
Location: Newman, IL
Elevation: 649 ft
Nearby Weather Stations

Elev 649 ft 39.80 °N, 87.98 °W | Updated 41 minutes ago

Overcast
Overcast
19 °F
Feels Like 12 °F
N
5
Wind Variable Wind from NW
Gusts 12.0 mph

Today
High -- | Low -- °F
--% Chance of Precip.
Yesterday
High -- | Low -- °F
Precip. -- in
6:20 AM 5:46 PM
Waxing Gibbous, 99% visible
Pressure 30.18 in
Visibility 7.0 miles
Clouds Mostly Cloudy 2300 ft
Mostly Cloudy 3400 ft
Overcast 7000 ft
Windchill 12 °F
Dew Point 12 °F
Humidity 73%
Rainfall 0.00 in
Snow Depth Not available.
UV 1 out of 12
Pollen .50 out of 12
Air Quality Not available.
Flu Activity Not available.
METAR KPRG 042035Z AUTO 33013G18KT 7SM -SN BKN023 BKN034 OVC070 M08/M10 A3018 RMK AO2 T10771105

More Conditions Fewer Conditions

Pressure 30.18 in
Visibility 7.0 miles
Clouds Mostly Cloudy 2300 ft
Mostly Cloudy 3400 ft
Overcast 7000 ft
Windchill 12 °F
Dew Point 12 °F
Humidity 73%
Rainfall 0.00 in
Snow Depth Not available.
UV 1 out of 12
Pollen .50 out of 12
Air Quality Not available.
Flu Activity Not available.
METAR KPRG 042035Z AUTO 33013G18KT 7SM -SN BKN023 BKN034 OVC070 M08/M10 A3018 RMK AO2 T10771105

More Conditions Fewer Conditions

10-Day Weather Forecast

Almanac

Astronomy

Mar. 04, 2015 Rise Set
Actual Time
Civil Twilight
Nautical Twilight
Astronomical Twilight
Moon
Length of Visible Light
Length of Day
Tomorrow will be .
, % of the Moon is Illuminated

Today's Extremes

State Highs State Lows

Community

WunderPhotos

Upload Photos

1,802,586 photos uploaded!

WunderBlogs® & News

Nearby

Air Quality

  Air Quality AQ Index Pollutant
Not available.

Snow Depth

Station Depth Elevation

Earthquake Activity

City Distance Mag. Time & Date
Minimum magnitude displayed is 2.5.

Coastal Water Temperatures

Place Temperature

Nearby Weather Stations